• Join FlightAware (Why Join?)
  • Login
  • US Flag 
11:08PM EDT


 

Airport Tracker/Info


-or-


 

Live Flight TrackerFlight Track Log ✈ OPT469 ✈ 20-Apr-2012 ✈ KAUS - KDAL

Flight Track Log - Related Links

Times and Time Zones

All times are in EDT time to prevent confusion due to time zone crossing. See the OPT469 flight status page for this flight to view local times or setup timezone preferences in your user account.

Time Position Orientation Groundspeed Altitude Reporting Facility
EDT Latitude Longitude Course Direction KTS MPH feet Rate Location/Type
12:23AM 30.2977 -97.6357 73° East  Level FlightAware Approximate
12:24AM 30.3081 -97.5967 40° Northeast 243 280 6,500  Level Houston Center
12:25AM 30.3647 -97.5425 44° Northeast 263 303 8,900 2,520 Climbing Houston Center
12:26AM 30.4217 -97.4783 45° Northeast 270 311 11,600 2,760 Climbing Houston Center
12:27AM 30.4767 -97.4139 46° Northeast 276 318 14,500 2,400 Climbing Houston Center
12:28AM 30.5228 -97.3589 47° Northeast 276 318 16,400 1,980 Climbing Houston Center
12:29AM 30.5778 -97.2897 45° Northeast 276 318 18,500 1,800 Climbing Houston Center
12:30AM 30.6325 -97.2250 46° Northeast 271 312 20,000 720 Climbing Houston Center
12:31AM 30.6939 -97.1511 45° Northeast 296 341 20,000  Level Houston Center
12:32AM 30.7664 -97.0658 46° Northeast 340 391 20,000  Level Houston Center
12:33AM 30.8908 -96.9147 45° Northeast 376 433 20,000  Level Fort Worth Center
12:34AM 30.9636 -96.8294 46° Northeast 376 433 20,000  Level Fort Worth Center
12:35AM 31.0342 -96.7442 45° Northeast 367 422 20,000  Level Fort Worth Center
12:36AM 31.1044 -96.6611 24° Northeast 361 415 20,000  Level Fort Worth Center
12:37AM 31.1942 -96.6144 356° North 342 394 20,000  Level Fort Worth Center
12:38AM 31.2922 -96.6233 352° North 332 382 20,000  Level Fort Worth Center
12:39AM 31.3925 -96.6394 352° North 344 396 20,000  Level Fort Worth Center
12:40AM 31.4886 -96.6558 354° North 349 402 20,000  Level Fort Worth Center
12:41AM 31.5847 -96.6672 353° North 354 407 20,000 -60 Level Fort Worth Center
12:42AM 31.6808 -96.6811 353° North 349 402 19,900 -600 Descending Fort Worth Center
12:43AM 31.7769 -96.6950 352° North 349 402 18,900 -1,080 Descending Fort Worth Center
12:44AM 31.8794 -96.7111 353° North 354 407 17,800 -1,020 Descending Fort Worth Center
12:45AM 31.9756 -96.7253 358° North 354 407 16,900 -960 Descending Fort Worth Center
12:46AM 32.0372 -96.7275 354° North 350 403 16,200 -1,260 Descending FAA TRACON SMA TRACON (SMA)
12:47AM 32.1039 -96.7364 353° North 344 396 15,200 -1,560 Descending FAA TRACON SMA TRACON (SMA)
12:47AM 32.1614 -96.7444 352° North 339 390 14,200 -2,520 Descending FAA TRACON SMA TRACON (SMA)
12:48AM 32.2228 -96.7542 352° North 320 368 11,900 -3,540 Descending FAA TRACON SMA TRACON (SMA)
12:49AM 32.2808 -96.7639 353° North 301 346 9,500 -2,640 Descending FAA TRACON SMA TRACON (SMA)
12:49AM 32.3275 -96.7706 356° North 274 315 8,400 -1,680 Descending FAA TRACON SMA TRACON (SMA)
12:50AM 32.3822 -96.7750 North 258 297 7,200 -1,680 Descending FAA TRACON SMA TRACON (SMA)
12:51AM 32.4258 -96.7742 North 252 290 6,200 -1,740 Descending FAA TRACON SMA TRACON (SMA)
12:51AM 32.4736 -96.7728 360° North 248 285 5,000 -1,680 Descending FAA TRACON SMA TRACON (SMA)
12:52AM 32.5150 -96.7731 North 242 278 4,000 -1,500 Descending FAA TRACON SMA TRACON (SMA)
12:53AM 32.5617 -96.7711 North 240 276 3,000 -780 Descending FAA TRACON SMA TRACON (SMA)
12:53AM 32.6006 -96.7706 360° North 227 261 3,000 -120 Level FAA TRACON SMA TRACON (SMA)
12:54AM 32.6422 -96.7703 359° North 216 249 2,900 -420 Descending FAA TRACON SMA TRACON (SMA)
12:55AM 32.6856 -96.7714 358° North 222 255 2,500 -300 Descending FAA TRACON SMA TRACON (SMA)
12:55AM 32.7283 -96.7728 355° North 223 257 2,500 -180 Level FAA TRACON SMA TRACON (SMA)
12:56AM 32.7619 -96.7761 347° North 197 227 2,300 -540 Descending FAA TRACON SMA TRACON (SMA)
12:57AM 32.7883 -96.7836 327° Northwest 137 158 1,800 -720 Descending FAA TRACON SMA TRACON (SMA)
12:57AM 32.8053 -96.7967 318° Northwest 115 132 1,400 -540 Descending FAA TRACON SMA TRACON (SMA)
12:58AM 32.8228 -96.8156 316° Northwest 121 139 1,100 -600 Descending FAA TRACON SMA TRACON (SMA)
12:59AM 32.8392 -96.8342 316° Northwest 118 136 600 -780 Descending FAA TRACON SMA TRACON (SMA)